Time;durP1;ratioP1;P1;durP2;ratioP2;P2;SDS_P1;SDS_P2;PMS_P1;PMS_P2;Temp;Humidity;BMP_temperature;BMP_pressure;BME280_temperature;BME280_humidity;BME280_pressure;Samples;Min_cycle;Max_cycle;Signal;HPM_P1;HPM_P2
2023/11/18 00:00:13;;;;;;;6.97;3.92;;;;;;;;;;4991561;28;20097;-60
2023/11/18 00:02:53;;;;;;;4.97;3.70;;;;;;;;;;4993957;28;20120;-61
2023/11/18 00:05:47;;;;;;;5.10;3.60;;;;;;;;;;4996370;28;20140;-60
2023/11/18 00:08:34;;;;;;;7.22;4.40;;;;;;;;;;4996465;28;20574;-60
2023/11/18 00:11:27;;;;;;;6.95;4.43;;;;;;;;;;4996937;28;20113;-54
2023/11/18 00:14:14;;;;;;;6.13;4.00;;;;;;;;;;4993623;28;20053;-49
2023/11/18 00:17:09;;;;;;;7.68;3.95;;;;;;;;;;4992163;28;20516;-50
2023/11/18 00:19:56;;;;;;;5.60;4.00;;;;;;;;;;4998024;28;20050;-61
2023/11/18 00:22:51;;;;;;;9.23;4.82;;;;;;;;;;4990302;28;20077;-60
2023/11/18 00:25:39;;;;;;;6.53;4.50;;;;;;;;;;4985662;28;20188;-61
2023/11/18 00:28:30;;;;;;;7.57;4.63;;;;;;;;;;4990489;28;20140;-60
2023/11/18 00:31:18;;;;;;;7.38;4.63;;;;;;;;;;4992039;28;20054;-60
2023/11/18 00:34:11;;;;;;;5.38;3.83;;;;;;;;;;4992493;28;20120;-60
2023/11/18 00:37:05;;;;;;;6.60;4.25;;;;;;;;;;4994060;28;20050;-61
2023/11/18 00:39:59;;;;;;;6.40;3.78;;;;;;;;;;4991733;28;20062;-49
2023/11/18 00:42:46;;;;;;;4.60;3.70;;;;;;;;;;4992225;28;20082;-49
2023/11/18 00:45:43;;;;;;;5.75;4.28;;;;;;;;;;4992894;28;20082;-49
2023/11/18 00:48:28;;;;;;;6.95;3.80;;;;;;;;;;4993439;28;20062;-61
2023/11/18 00:51:21;;;;;;;6.07;4.03;;;;;;;;;;4989880;28;20536;-60
2023/11/18 00:54:09;;;;;;;6.13;3.90;;;;;;;;;;4980513;28;20062;-67
2023/11/18 00:57:03;;;;;;;5.25;3.90;;;;;;;;;;4970565;28;20069;-67
2023/11/18 00:59:49;;;;;;;7.57;4.07;;;;;;;;;;4989281;28;20100;-67
2023/11/18 01:02:44;;;;;;;5.05;3.72;;;;;;;;;;4991175;28;20054;-67
2023/11/18 01:05:31;;;;;;;7.00;4.72;;;;;;;;;;4995377;28;20057;-67
2023/11/18 01:08:25;;;;;;;6.88;4.45;;;;;;;;;;4992517;28;20681;-61
2023/11/18 01:11:19;;;;;;;6.03;4.28;;;;;;;;;;4988065;28;20104;-61
2023/11/18 01:14:34;;;;;;;6.47;4.20;;;;;;;;;;4993067;28;20055;-60
2023/11/18 01:17:22;;;;;;;5.75;3.92;;;;;;;;;;4992341;28;20784;-60
2023/11/18 01:20:20;;;;;;;6.00;3.90;;;;;;;;;;4992645;28;20057;-61
2023/11/18 01:23:01;;;;;;;6.32;4.00;;;;;;;;;;4991336;28;20136;-61
2023/11/18 01:26:04;;;;;;;6.03;3.90;;;;;;;;;;4987211;28;20705;-61
2023/11/18 01:28:49;;;;;;;6.20;4.13;;;;;;;;;;4992264;28;20131;-62
2023/11/18 01:31:43;;;;;;;6.97;4.10;;;;;;;;;;4993198;28;20081;-60
2023/11/18 01:34:31;;;;;;;7.45;4.40;;;;;;;;;;4991139;28;20061;-59
2023/11/18 01:37:24;;;;;;;5.88;3.70;;;;;;;;;;4991747;28;20053;-56
2023/11/18 01:40:13;;;;;;;9.50;3.80;;;;;;;;;;4993370;28;20814;-50
2023/11/18 01:43:11;;;;;;;6.15;4.13;;;;;;;;;;4992670;28;20148;-49
2023/11/18 01:45:53;;;;;;;4.97;3.75;;;;;;;;;;4989833;28;20046;-51
2023/11/18 01:48:47;;;;;;;7.38;3.88;;;;;;;;;;4991002;28;20042;-48
2023/11/18 01:51:35;;;;;;;5.80;3.80;;;;;;;;;;4995711;28;20057;-51
2023/11/18 01:54:28;;;;;;;5.25;3.95;;;;;;;;;;4994997;28;20116;-46
2023/11/18 01:57:16;;;;;;;7.65;4.05;;;;;;;;;;4997787;28;20050;-46
2023/11/18 02:00:11;;;;;;;6.68;4.32;;;;;;;;;;4989334;28;20058;-48
2023/11/18 02:02:57;;;;;;;6.53;4.38;;;;;;;;;;4996473;28;20057;-55
2023/11/18 02:05:51;;;;;;;5.57;4.22;;;;;;;;;;4992658;28;20414;-58
2023/11/18 02:08:38;;;;;;;7.45;4.05;;;;;;;;;;4995529;28;20096;-59
2023/11/18 02:11:41;;;;;;;8.05;4.35;;;;;;;;;;4996921;28;20066;-59
2023/11/18 02:14:28;;;;;;;5.47;3.80;;;;;;;;;;4996356;28;20966;-59
2023/11/18 02:17:24;;;;;;;8.75;4.45;;;;;;;;;;4992526;28;20113;-60
2023/11/18 02:20:15;;;;;;;7.20;4.25;;;;;;;;;;4994664;28;20049;-60
2023/11/18 02:23:07;;;;;;;5.57;3.65;;;;;;;;;;4997450;28;20053;-61
2023/11/18 02:25:52;;;;;;;6.80;3.75;;;;;;;;;;4991959;28;20663;-60
2023/11/18 02:28:53;;;;;;;6.90;4.75;;;;;;;;;;4997606;28;20920;-60
2023/11/18 02:31:39;;;;;;;5.65;4.30;;;;;;;;;;4997570;28;20058;-61
2023/11/18 02:34:35;;;;;;;7.32;4.18;;;;;;;;;;4998140;28;20050;-57
2023/11/18 02:37:32;;;;;;;8.60;4.65;;;;;;;;;;4996465;28;20054;-50
2023/11/18 02:40:46;;;;;;;9.25;4.47;;;;;;;;;;4998477;28;20179;-53
2023/11/18 02:43:40;;;;;;;6.65;4.45;;;;;;;;;;4995430;28;20180;-52
2023/11/18 02:46:28;;;;;;;6.38;4.10;;;;;;;;;;4991766;28;20042;-53
2023/11/18 02:49:21;;;;;;;7.18;4.47;;;;;;;;;;4999338;28;20046;-51
2023/11/18 02:52:09;;;;;;;6.05;4.00;;;;;;;;;;4995872;28;20124;-57
2023/11/18 02:55:02;;;;;;;6.47;4.10;;;;;;;;;;4996267;28;20054;-57
2023/11/18 02:57:51;;;;;;;5.40;3.78;;;;;;;;;;4993043;28;20128;-55
2023/11/18 03:00:44;;;;;;;6.35;3.67;;;;;;;;;;4989651;28;20053;-60
2023/11/18 03:03:31;;;;;;;6.20;4.30;;;;;;;;;;4996116;28;20074;-60
2023/11/18 03:06:25;;;;;;;5.65;3.55;;;;;;;;;;4995885;28;20058;-60
2023/11/18 03:09:13;;;;;;;6.35;3.53;;;;;;;;;;4993674;28;20108;-61
2023/11/18 03:12:07;;;;;;;5.60;3.70;;;;;;;;;;4995340;28;20046;-60
2023/11/18 03:14:53;;;;;;;8.52;4.22;;;;;;;;;;4995440;28;20054;-60
2023/11/18 03:17:49;;;;;;;7.28;4.05;;;;;;;;;;4994660;28;20065;-61
2023/11/18 03:20:35;;;;;;;5.68;3.75;;;;;;;;;;4992464;28;20054;-61
2023/11/18 03:23:29;;;;;;;6.93;3.78;;;;;;;;;;4995584;28;20061;-60
2023/11/18 03:26:23;;;;;;;6.88;3.90;;;;;;;;;;4986397;28;20505;-61
2023/11/18 03:29:24;;;;;;;7.40;4.15;;;;;;;;;;4956142;28;20105;-49
2023/11/18 03:32:12;;;;;;;6.05;3.70;;;;;;;;;;4955215;28;20058;-62
2023/11/18 03:35:09;;;;;;;6.18;4.00;;;;;;;;;;4953560;28;20116;-47
2023/11/18 03:37:57;;;;;;;6.25;3.95;;;;;;;;;;4957680;28;20102;-47
2023/11/18 03:40:52;;;;;;;7.40;3.80;;;;;;;;;;4959198;28;20058;-49
2023/11/18 03:43:38;;;;;;;7.07;4.20;;;;;;;;;;4956604;28;20055;-49
2023/11/18 03:46:34;;;;;;;7.43;4.18;;;;;;;;;;4958604;28;20304;-50
2023/11/18 03:49:27;;;;;;;6.57;3.90;;;;;;;;;;4956195;28;20429;-60
2023/11/18 03:52:20;;;;;;;6.00;3.90;;;;;;;;;;4956734;28;20068;-61
2023/11/18 03:55:08;;;;;;;5.38;3.70;;;;;;;;;;4957312;28;20137;-61
2023/11/18 03:58:02;;;;;;;5.63;3.53;;;;;;;;;;4951828;28;20046;-62
2023/11/18 04:00:49;;;;;;;5.68;3.72;;;;;;;;;;4956764;28;20069;-60
2023/11/18 04:03:43;;;;;;;8.98;4.38;;;;;;;;;;4956401;28;20517;-60
2023/11/18 04:06:31;;;;;;;6.97;4.13;;;;;;;;;;4956187;28;20058;-61
2023/11/18 04:09:25;;;;;;;6.97;4.03;;;;;;;;;;4953288;28;20059;-61
2023/11/18 04:12:11;;;;;;;5.72;3.75;;;;;;;;;;4955971;28;20050;-61
2023/11/18 04:15:06;;;;;;;6.28;3.63;;;;;;;;;;4954158;28;20132;-61
2023/11/18 04:17:53;;;;;;;6.57;4.38;;;;;;;;;;4954867;28;20054;-60
2023/11/18 04:20:47;;;;;;;5.63;3.55;;;;;;;;;;4953513;28;20502;-61
2023/11/18 04:23:38;;;;;;;6.07;4.05;;;;;;;;;;4956664;28;20054;-61
2023/11/18 04:26:39;;;;;;;7.47;4.28;;;;;;;;;;4965533;28;20057;-53
2023/11/18 04:29:36;;;;;;;7.28;4.15;;;;;;;;;;4992997;28;20053;-50
2023/11/18 04:32:27;;;;;;;6.55;4.18;;;;;;;;;;4993773;28;20077;-53
2023/11/18 04:35:15;;;;;;;5.82;4.20;;;;;;;;;;4990658;28;20049;-49
2023/11/18 04:38:09;;;;;;;7.03;4.60;;;;;;;;;;4994523;28;20054;-51
2023/11/18 04:41:03;;;;;;;6.20;3.70;;;;;;;;;;4993758;28;20054;-46
2023/11/18 04:43:56;;;;;;;5.30;3.80;;;;;;;;;;4989379;28;20139;-52
2023/11/18 04:46:46;;;;;;;6.90;4.45;;;;;;;;;;4992564;28;20058;-60
2023/11/18 04:49:40;;;;;;;7.95;4.32;;;;;;;;;;4989271;28;20448;-60
2023/11/18 04:52:34;;;;;;;6.45;3.80;;;;;;;;;;4991199;28;20051;-59
2023/11/18 04:55:22;;;;;;;8.25;4.07;;;;;;;;;;4996787;28;20061;-51
2023/11/18 04:58:16;;;;;;;7.05;4.30;;;;;;;;;;4990244;28;20512;-61
2023/11/18 05:01:04;;;;;;;8.37;4.20;;;;;;;;;;4991514;28;20054;-61
2023/11/18 05:03:57;;;;;;;5.53;3.92;;;;;;;;;;4992269;28;20077;-61
2023/11/18 05:06:44;;;;;;;6.93;3.90;;;;;;;;;;4992007;28;20067;-61
2023/11/18 05:09:38;;;;;;;5.90;4.07;;;;;;;;;;4993622;28;20120;-61
2023/11/18 05:12:33;;;;;;;9.07;4.60;;;;;;;;;;4989383;28;20058;-61
2023/11/18 05:15:26;;;;;;;7.32;4.70;;;;;;;;;;4993694;28;20477;-58
2023/11/18 05:18:14;;;;;;;6.93;4.15;;;;;;;;;;4993665;28;20077;-61
2023/11/18 05:21:09;;;;;;;5.97;3.50;;;;;;;;;;4990627;28;20085;-61
2023/11/18 05:23:57;;;;;;;6.30;4.10;;;;;;;;;;4993046;28;20057;-61
2023/11/18 05:26:56;;;;;;;7.60;4.03;;;;;;;;;;4996357;28;20049;-57
2023/11/18 05:29:54;;;;;;;6.82;4.65;;;;;;;;;;4994689;28;20069;-55
2023/11/18 05:32:43;;;;;;;5.28;3.58;;;;;;;;;;4995871;28;20057;-55
2023/11/18 05:35:37;;;;;;;7.65;3.80;;;;;;;;;;4994643;28;20046;-55
2023/11/18 05:38:34;;;;;;;7.05;3.95;;;;;;;;;;4996510;28;20175;-52
2023/11/18 05:41:27;;;;;;;7.32;3.90;;;;;;;;;;5000071;28;20167;-60
2023/11/18 05:44:17;;;;;;;7.68;4.07;;;;;;;;;;4997931;28;20104;-61
2023/11/18 05:47:01;;;;;;;7.72;4.13;;;;;;;;;;4995934;28;20053;-58
2023/11/18 05:49:55;;;;;;;7.30;4.05;;;;;;;;;;4997470;28;20150;-61
2023/11/18 05:52:48;;;;;;;9.30;3.97;;;;;;;;;;4998364;28;20058;-47
2023/11/18 05:55:43;;;;;;;6.13;3.97;;;;;;;;;;4998904;28;20132;-54
2023/11/18 05:58:30;;;;;;;9.07;4.57;;;;;;;;;;4997604;28;20152;-52
2023/11/18 06:01:27;;;;;;;9.65;4.32;;;;;;;;;;4994813;28;20068;-53
2023/11/18 06:04:11;;;;;;;6.95;3.55;;;;;;;;;;4992687;28;20497;-57
2023/11/18 06:07:06;;;;;;;6.53;3.85;;;;;;;;;;4992834;28;20057;-52
2023/11/18 06:09:52;;;;;;;8.20;4.05;;;;;;;;;;4995398;28;20060;-58
2023/11/18 06:12:46;;;;;;;6.13;4.18;;;;;;;;;;4993735;28;20269;-58
2023/11/18 06:15:35;;;;;;;9.40;4.15;;;;;;;;;;4996096;28;20568;-61
2023/11/18 06:18:28;;;;;;;5.95;4.07;;;;;;;;;;4994627;28;20056;-59
2023/11/18 06:21:28;;;;;;;7.50;4.20;;;;;;;;;;4994274;28;20127;-46
2023/11/18 06:24:21;;;;;;;7.82;4.00;;;;;;;;;;4994516;28;20436;-61
2023/11/18 06:27:13;;;;;;;7.43;4.07;;;;;;;;;;4992063;28;20068;-60
2023/11/18 06:30:07;;;;;;;8.13;3.85;;;;;;;;;;4993891;28;20101;-61
2023/11/18 06:32:55;;;;;;;12.57;4.15;;;;;;;;;;4996639;28;20131;-60
2023/11/18 06:35:49;;;;;;;10.90;4.32;;;;;;;;;;4995176;28;20065;-61
2023/11/18 06:41:33;;;;;;;7.20;4.15;;;;;;;;;;3001501;22;20202;-62
2023/11/18 06:44:23;;;;;;;8.82;4.28;;;;;;;;;;4997592;28;20054;-62
2023/11/18 06:47:13;;;;;;;7.35;4.20;;;;;;;;;;4995539;28;20528;-62
2023/11/18 06:50:00;;;;;;;7.38;4.03;;;;;;;;;;4996292;28;20137;-63
2023/11/18 06:52:54;;;;;;;5.18;3.72;;;;;;;;;;4995530;28;20893;-62
2023/11/18 06:55:42;;;;;;;6.78;4.18;;;;;;;;;;4994785;28;20121;-62
2023/11/18 06:58:37;;;;;;;8.05;4.13;;;;;;;;;;4979425;28;20046;-62
2023/11/18 07:01:24;;;;;;;10.35;4.28;;;;;;;;;;4979468;28;20057;-62
2023/11/18 07:04:19;;;;;;;7.25;3.65;;;;;;;;;;4978574;28;20413;-62
2023/11/18 07:07:08;;;;;;;6.55;4.03;;;;;;;;;;4982788;28;20247;-62
2023/11/18 07:09:59;;;;;;;7.32;4.10;;;;;;;;;;4976772;28;20105;-62
2023/11/18 07:12:47;;;;;;;7.35;4.15;;;;;;;;;;4983224;28;20532;-62
2023/11/18 07:15:41;;;;;;;6.13;4.03;;;;;;;;;;4976375;28;20055;-62
2023/11/18 07:18:35;;;;;;;9.13;4.28;;;;;;;;;;4976533;28;20046;-54
2023/11/18 07:21:30;;;;;;;5.55;3.70;;;;;;;;;;4982213;28;20062;-50
2023/11/18 07:24:17;;;;;;;5.78;3.67;;;;;;;;;;4974253;28;20066;-55
2023/11/18 07:27:11;;;;;;;6.07;3.63;;;;;;;;;;4978456;28;20054;-52
2023/11/18 07:29:38;;;;;;;5.55;3.58;;;;;;;;;;4979130;28;20458;-51
2023/11/18 07:32:06;;;;;;;8.82;3.67;;;;;;;;;;4980820;28;20054;-52
2023/11/18 07:34:41;;;;;;;6.55;3.75;;;;;;;;;;4978486;28;20686;-50
2023/11/18 07:37:08;;;;;;;7.22;3.47;;;;;;;;;;4983389;28;20049;-53
2023/11/18 07:39:44;;;;;;;7.72;3.58;;;;;;;;;;4983450;28;20057;-51
2023/11/18 07:42:25;;;;;;;5.63;3.80;;;;;;;;;;4992887;28;20066;-54
2023/11/18 07:44:59;;;;;;;5.10;3.22;;;;;;;;;;4997555;28;20057;-53
2023/11/18 07:47:27;;;;;;;4.43;2.95;;;;;;;;;;4997560;28;20072;-50
2023/11/18 07:49:55;;;;;;;7.70;3.50;;;;;;;;;;4998541;28;20049;-53
2023/11/18 07:52:28;;;;;;;7.13;3.22;;;;;;;;;;4995981;28;20054;-50
2023/11/18 07:54:56;;;;;;;;;;;;;;;;;;4998109;28;20072;-54
2023/11/18 07:57:23;;;;;;;5.15;3.22;;;;;;;;;;4996219;28;19925;-54
2023/11/18 08:00:05;;;;;;;6.15;3.60;;;;;;;;;;5000224;28;20493;-50
2023/11/18 08:02:32;;;;;;;7.88;3.63;;;;;;;;;;4994946;28;20054;-51
2023/11/18 08:05:07;;;;;;;6.07;3.25;;;;;;;;;;4997567;28;20058;-51
2023/11/18 08:07:34;;;;;;;;;;;;;;;;;;4998111;28;20505;-54
2023/11/18 08:10:05;;;;;;;6.10;3.35;;;;;;;;;;4995154;28;19925;-51
2023/11/18 08:12:40;;;;;;;5.60;3.60;;;;;;;;;;4999634;28;20590;-54
2023/11/18 08:15:09;;;;;;;5.25;3.47;;;;;;;;;;4994400;28;20119;-49
2023/11/18 08:17:43;;;;;;;6.88;3.30;;;;;;;;;;4994605;28;20085;-52
2023/11/18 08:20:14;;;;;;;5.50;3.10;;;;;;;;;;4999389;28;20056;-51
2023/11/18 08:22:45;;;;;;;6.57;3.00;;;;;;;;;;4996548;28;20176;-49
2023/11/18 08:25:19;;;;;;;4.03;2.83;;;;;;;;;;4998371;28;20425;-54
2023/11/18 08:27:46;;;;;;;6.32;2.78;;;;;;;;;;4995714;28;20324;-50
2023/11/18 08:30:13;;;;;;;5.15;3.22;;;;;;;;;;4999641;28;20081;-53
2023/11/18 08:32:48;;;;;;;3.85;2.72;;;;;;;;;;4996457;28;20042;-53
2023/11/18 08:35:16;;;;;;;4.72;3.30;;;;;;;;;;5001641;28;20054;-53
2023/11/18 08:37:51;;;;;;;5.05;3.20;;;;;;;;;;4997719;28;20505;-49
2023/11/18 08:40:25;;;;;;;5.47;3.22;;;;;;;;;;4994760;28;20049;-52
2023/11/18 08:43:07;;;;;;;5.32;3.03;;;;;;;;;;4983699;28;20101;-54
2023/11/18 08:45:37;;;;;;;5.05;2.95;;;;;;;;;;4978429;28;20085;-48
2023/11/18 08:48:10;;;;;;;4.47;2.60;;;;;;;;;;4975624;28;20065;-52
2023/11/18 08:50:41;;;;;;;;;;;;;;;;;;4980055;28;20867;-51
2023/11/18 08:53:17;;;;;;;4.25;2.92;;;;;;;;;;4979357;28;19992;-53
2023/11/18 08:55:53;;;;;;;5.22;3.20;;;;;;;;;;4972703;28;20623;-50
2023/11/18 08:58:28;;;;;;;5.38;3.10;;;;;;;;;;4975411;28;20053;-52
2023/11/18 09:01:05;;;;;;;5.25;3.40;;;;;;;;;;4973593;28;20225;-51
2023/11/18 09:03:48;;;;;;;3.70;3.05;;;;;;;;;;4983068;28;20054;-50
2023/11/18 09:06:25;;;;;;;4.75;3.05;;;;;;;;;;4982286;28;20502;-52
2023/11/18 09:09:00;;;;;;;4.60;3.10;;;;;;;;;;4982847;28;20061;-48
2023/11/18 09:11:32;;;;;;;3.95;2.55;;;;;;;;;;4981712;28;20054;-53
2023/11/18 09:14:07;;;;;;;3.92;2.95;;;;;;;;;;4982586;28;20435;-53
2023/11/18 09:16:58;;;;;;;3.72;2.72;;;;;;;;;;4977098;28;20054;-50
2023/11/18 09:19:52;;;;;;;5.28;2.78;;;;;;;;;;4980800;28;20153;-53
2023/11/18 09:22:45;;;;;;;5.40;2.90;;;;;;;;;;4979175;28;20077;-50
2023/11/18 09:25:37;;;;;;;;;;;;;;;;;;4946156;28;24060;-50
2023/11/18 09:28:25;;;;;;;4.00;2.88;;;;;;;;;;4975617;28;20321;-50
2023/11/18 09:31:18;;;;;;;4.93;2.83;;;;;;;;;;4976649;28;20062;-55
2023/11/18 09:34:06;;;;;;;5.40;3.10;;;;;;;;;;4977511;28;20390;-50
2023/11/18 09:36:59;;;;;;;4.38;3.22;;;;;;;;;;4978590;28;20421;-48
2023/11/18 09:39:52;;;;;;;5.43;3.40;;;;;;;;;;4979472;28;20109;-51
2023/11/18 09:42:47;;;;;;;4.85;2.83;;;;;;;;;;5007226;28;20062;-50
2023/11/18 09:45:35;;;;;;;5.55;3.08;;;;;;;;;;5014353;28;20123;-53
2023/11/18 09:48:29;;;;;;;6.75;3.15;;;;;;;;;;5014156;28;20058;-53
2023/11/18 09:51:21;;;;;;;6.35;3.58;;;;;;;;;;4987577;28;20135;-51
2023/11/18 09:54:24;;;;;;;3.95;2.90;;;;;;;;;;5023470;28;20049;-65
2023/11/18 09:57:15;;;;;;;6.30;3.40;;;;;;;;;;5016914;28;20435;-64
2023/11/18 10:00:26;;;;;;;4.32;2.83;;;;;;;;;;5011064;28;20057;-64
2023/11/18 10:03:12;;;;;;;5.70;3.60;;;;;;;;;;5021465;28;20053;-65
2023/11/18 10:06:06;;;;;;;6.20;3.17;;;;;;;;;;5012793;28;20130;-65
2023/11/18 10:08:53;;;;;;;4.35;3.35;;;;;;;;;;5017889;28;20045;-63
2023/11/18 10:11:49;;;;;;;7.45;3.65;;;;;;;;;;5013947;28;20088;-65
2023/11/18 10:14:39;;;;;;;4.10;3.00;;;;;;;;;;5019464;28;20053;-64
2023/11/18 10:17:31;;;;;;;5.15;2.80;;;;;;;;;;5015089;28;20057;-64
2023/11/18 10:20:20;;;;;;;4.50;3.00;;;;;;;;;;5017303;28;20050;-64
2023/11/18 10:23:19;;;;;;;4.30;2.85;;;;;;;;;;5017475;28;20049;-65
2023/11/18 10:26:13;;;;;;;5.35;2.67;;;;;;;;;;5016978;28;20057;-65
2023/11/18 10:29:07;;;;;;;5.95;2.58;;;;;;;;;;5015964;28;20135;-65
2023/11/18 10:32:15;;;;;;;4.60;2.97;;;;;;;;;;5015642;28;20103;-65
2023/11/18 10:35:09;;;;;;;4.28;2.83;;;;;;;;;;5016954;28;20052;-65
2023/11/18 10:37:54;;;;;;;4.22;2.83;;;;;;;;;;5013369;28;20054;-62
2023/11/18 10:40:48;;;;;;;3.20;2.10;;;;;;;;;;5019169;28;20149;-65
2023/11/18 10:43:44;;;;;;;5.30;2.85;;;;;;;;;;5016356;28;20136;-65
2023/11/18 10:46:36;;;;;;;3.88;2.55;;;;;;;;;;5018327;28;20064;-65
2023/11/18 10:49:24;;;;;;;3.67;2.50;;;;;;;;;;5015077;28;20057;-65
2023/11/18 10:52:19;;;;;;;2.95;2.40;;;;;;;;;;5017628;28;20056;-64
2023/11/18 10:55:11;;;;;;;2.55;2.15;;;;;;;;;;5018213;28;20480;-66
2023/11/18 10:58:01;;;;;;;2.60;2.08;;;;;;;;;;5016916;28;20057;-64
2023/11/18 11:00:49;;;;;;;7.13;2.28;;;;;;;;;;5017559;28;20677;-65
2023/11/18 11:03:56;;;;;;;3.85;2.10;;;;;;;;;;5018239;28;20050;-65
2023/11/18 11:06:53;;;;;;;4.47;2.13;;;;;;;;;;5016936;28;20053;-65
2023/11/18 11:09:42;;;;;;;2.53;2.03;;;;;;;;;;5015418;28;20482;-65
2023/11/18 11:12:38;;;;;;;2.33;2.03;;;;;;;;;;5018383;28;20076;-65
2023/11/18 11:15:28;;;;;;;2.70;2.20;;;;;;;;;;5018020;28;20119;-64
2023/11/18 11:18:28;;;;;;;4.35;1.90;;;;;;;;;;5013030;28;20409;-64
2023/11/18 11:21:16;;;;;;;2.83;2.10;;;;;;;;;;5013547;28;20045;-59
2023/11/18 11:24:12;;;;;;;5.57;2.15;;;;;;;;;;5015433;28;20096;-59
2023/11/18 11:27:17;;;;;;;5.15;2.95;;;;;;;;;;5014305;28;20132;-58
2023/11/18 11:30:10;;;;;;;2.67;2.28;;;;;;;;;;5010187;28;22269;-61
2023/11/18 11:33:12;;;;;;;2.75;1.98;;;;;;;;;;5010389;28;20053;-61
2023/11/18 11:35:57;;;;;;;2.38;1.80;;;;;;;;;;5020326;28;20074;-61
2023/11/18 11:38:55;;;;;;;2.47;1.90;;;;;;;;;;5019737;28;20496;-61
2023/11/18 11:41:46;;;;;;;2.58;1.98;;;;;;;;;;5012198;28;20271;-61
2023/11/18 11:44:42;;;;;;;4.15;2.05;;;;;;;;;;5012476;28;20135;-60
2023/11/18 11:47:29;;;;;;;2.47;2.05;;;;;;;;;;5013318;28;20834;-61
2023/11/18 11:50:31;;;;;;;3.13;2.03;;;;;;;;;;5011348;28;20084;-61
2023/11/18 11:53:23;;;;;;;2.83;2.15;;;;;;;;;;5014526;28;20473;-61
2023/11/18 11:56:21;;;;;;;2.53;2.00;;;;;;;;;;5011166;28;20076;-61
2023/11/18 11:59:02;;;;;;;2.70;2.20;;;;;;;;;;5014695;28;20057;-61
2023/11/18 12:01:58;;;;;;;2.25;1.90;;;;;;;;;;5013136;28;20132;-61
2023/11/18 12:04:52;;;;;;;3.33;2.22;;;;;;;;;;5015396;28;20627;-61
2023/11/18 12:07:43;;;;;;;2.83;2.05;;;;;;;;;;5016871;28;20052;-59
2023/11/18 12:10:35;;;;;;;2.78;2.30;;;;;;;;;;5015159;28;20707;-59
2023/11/18 12:13:26;;;;;;;2.70;2.30;;;;;;;;;;5015069;28;20072;-59
2023/11/18 12:16:20;;;;;;;4.00;2.58;;;;;;;;;;5013480;28;20949;-59
2023/11/18 12:19:26;;;;;;;3.33;2.35;;;;;;;;;;5017559;28;20049;-59
2023/11/18 12:22:19;;;;;;;3.78;2.30;;;;;;;;;;5011411;28;20080;-59
2023/11/18 12:25:15;;;;;;;3.80;2.38;;;;;;;;;;5014404;28;20060;-59
2023/11/18 12:28:07;;;;;;;2.17;1.98;;;;;;;;;;5015225;28;20463;-59
2023/11/18 12:31:13;;;;;;;3.42;2.30;;;;;;;;;;5016222;28;20512;-60
2023/11/18 12:33:53;;;;;;;2.47;2.05;;;;;;;;;;5011445;28;20058;-59
2023/11/18 12:37:08;;;;;;;3.78;2.58;;;;;;;;;;5011653;28;20543;-59
2023/11/18 12:40:12;;;;;;;3.60;2.38;;;;;;;;;;5015171;28;20085;-59
2023/11/18 12:43:10;;;;;;;3.22;2.28;;;;;;;;;;5010679;28;20053;-60
2023/11/18 12:46:14;;;;;;;5.28;2.60;;;;;;;;;;5015733;28;20061;-59
2023/11/18 12:49:05;;;;;;;4.43;2.30;;;;;;;;;;5014118;28;20046;-59
2023/11/18 12:51:53;;;;;;;4.05;2.40;;;;;;;;;;5011064;28;20055;-59
2023/11/18 12:54:50;;;;;;;3.28;2.38;;;;;;;;;;5014512;28;20144;-59
2023/11/18 12:57:38;;;;;;;3.67;2.00;;;;;;;;;;5012446;28;20511;-59
2023/11/18 13:00:30;;;;;;;3.45;2.67;;;;;;;;;;5015688;28;20052;-59
2023/11/18 13:03:15;;;;;;;3.40;2.50;;;;;;;;;;5013346;28;20065;-59
2023/11/18 13:06:12;;;;;;;3.90;2.65;;;;;;;;;;5013762;28;20654;-59
2023/11/18 13:08:59;;;;;;;3.50;2.40;;;;;;;;;;5017600;28;20119;-59
2023/11/18 13:11:56;;;;;;;4.45;2.42;;;;;;;;;;5015350;28;20409;-59
2023/11/18 13:14:42;;;;;;;2.80;2.03;;;;;;;;;;5015642;28;20054;-59
2023/11/18 13:17:35;;;;;;;3.47;2.38;;;;;;;;;;5013316;28;20050;-59
2023/11/18 13:20:25;;;;;;;3.58;2.33;;;;;;;;;;5011827;28;20045;-59
2023/11/18 13:23:18;;;;;;;3.15;2.38;;;;;;;;;;5012693;28;20053;-59
2023/11/18 13:26:05;;;;;;;3.15;2.38;;;;;;;;;;5014641;28;20501;-59
2023/11/18 13:29:02;;;;;;;3.22;2.08;;;;;;;;;;5014199;28;20057;-59
2023/11/18 13:31:48;;;;;;;2.60;2.13;;;;;;;;;;5014942;28;20049;-59
2023/11/18 13:34:43;;;;;;;6.13;2.15;;;;;;;;;;5012175;28;20060;-59
2023/11/18 13:37:50;;;;;;;2.70;2.00;;;;;;;;;;5013613;28;20748;-59
2023/11/18 13:40:47;;;;;;;3.10;2.20;;;;;;;;;;5017881;28;20050;-59
2023/11/18 13:43:53;;;;;;;2.60;2.08;;;;;;;;;;5014786;28;20049;-59
2023/11/18 13:46:48;;;;;;;3.65;2.13;;;;;;;;;;5019798;28;20095;-59
2023/11/18 13:49:36;;;;;;;3.08;2.28;;;;;;;;;;5022117;28;20555;-59
2023/11/18 13:52:30;;;;;;;4.75;2.40;;;;;;;;;;5016997;28;20330;-59
2023/11/18 13:55:17;;;;;;;3.50;2.25;;;;;;;;;;5017007;28;20435;-59
2023/11/18 13:58:10;;;;;;;3.42;2.25;;;;;;;;;;5016435;28;20054;-59
2023/11/18 14:00:58;;;;;;;2.67;2.10;;;;;;;;;;5016133;28;20475;-59
2023/11/18 14:03:31;;;;;;;5.30;2.20;;;;;;;;;;5014222;28;20162;-59
2023/11/18 14:06:06;;;;;;;3.60;2.30;;;;;;;;;;5015271;28;20146;-59
2023/11/18 14:08:34;;;;;;;3.40;2.05;;;;;;;;;;5011256;28;20107;-59
2023/11/18 14:11:04;;;;;;;2.95;2.00;;;;;;;;;;5016435;28;20111;-59
2023/11/18 14:13:55;;;;;;;3.13;2.28;;;;;;;;;;5023058;28;20057;-59
2023/11/18 14:16:43;;;;;;;3.75;2.45;;;;;;;;;;5021188;28;20148;-59
2023/11/18 14:19:37;;;;;;;4.00;2.60;;;;;;;;;;5007568;28;20910;-60
2023/11/18 14:22:24;;;;;;;3.63;2.80;;;;;;;;;;5007932;28;20069;-59
2023/11/18 14:25:23;;;;;;;4.18;2.80;;;;;;;;;;5018053;28;20394;-59
2023/11/18 14:28:08;;;;;;;4.57;3.30;;;;;;;;;;5018673;28;20100;-59
2023/11/18 14:31:04;;;;;;;5.25;3.08;;;;;;;;;;5014362;28;20053;-59
2023/11/18 14:33:52;;;;;;;4.32;3.05;;;;;;;;;;5017357;28;20413;-59
2023/11/18 14:36:45;;;;;;;5.47;3.30;;;;;;;;;;5017457;28;20060;-59
2023/11/18 14:39:35;;;;;;;6.70;2.90;;;;;;;;;;5019108;28;20061;-59
2023/11/18 14:42:27;;;;;;;3.85;2.53;;;;;;;;;;5010175;28;20409;-59
2023/11/18 14:45:27;;;;;;;6.07;3.05;;;;;;;;;;5017584;28;20105;-60
2023/11/18 14:48:21;;;;;;;4.63;3.08;;;;;;;;;;5016478;28;20068;-60
2023/11/18 14:51:08;;;;;;;6.65;2.75;;;;;;;;;;5013365;28;20076;-59
2023/11/18 14:54:02;;;;;;;5.00;3.00;;;;;;;;;;5019216;28;20080;-60
2023/11/18 14:56:49;;;;;;;6.00;3.00;;;;;;;;;;5012852;28;20065;-60
2023/11/18 14:59:43;;;;;;;4.63;2.90;;;;;;;;;;5016269;28;20099;-60
2023/11/18 15:02:30;;;;;;;3.60;2.70;;;;;;;;;;5016335;28;20515;-60
2023/11/18 15:05:27;;;;;;;4.80;2.97;;;;;;;;;;5014576;28;20164;-59
2023/11/18 15:08:20;;;;;;;4.53;2.92;;;;;;;;;;5013083;28;20053;-59
2023/11/18 15:11:15;;;;;;;4.82;2.88;;;;;;;;;;5012588;28;20610;-59
2023/11/18 15:14:07;;;;;;;4.25;2.90;;;;;;;;;;5018519;28;20136;-59
2023/11/18 15:16:54;;;;;;;14.02;3.80;;;;;;;;;;5016607;28;20174;-59
2023/11/18 15:19:50;;;;;;;4.22;3.10;;;;;;;;;;5015417;28;20050;-59
2023/11/18 15:22:36;;;;;;;6.07;3.28;;;;;;;;;;5015181;28;20064;-59
2023/11/18 15:25:29;;;;;;;3.83;2.85;;;;;;;;;;5008105;28;20057;-59
2023/11/18 15:28:18;;;;;;;4.60;2.95;;;;;;;;;;5016743;28;20081;-60
2023/11/18 15:31:12;;;;;;;5.90;3.40;;;;;;;;;;5013561;28;20111;-59
2023/11/18 15:34:00;;;;;;;5.85;3.00;;;;;;;;;;5015629;28;20061;-59
2023/11/18 15:36:52;;;;;;;4.35;2.85;;;;;;;;;;5014703;28;20146;-59
2023/11/18 15:39:41;;;;;;;4.43;3.05;;;;;;;;;;5010313;28;20045;-60
2023/11/18 15:42:40;;;;;;;4.05;3.13;;;;;;;;;;5010798;28;20069;-60
2023/11/18 15:45:34;;;;;;;6.50;3.15;;;;;;;;;;5009226;28;20057;-60
2023/11/18 15:48:28;;;;;;;4.72;3.25;;;;;;;;;;5001545;28;20057;-61
2023/11/18 15:51:15;;;;;;;5.07;3.40;;;;;;;;;;4994389;28;20402;-61
2023/11/18 15:54:11;;;;;;;5.60;3.42;;;;;;;;;;5001421;28;20550;-61
2023/11/18 15:56:56;;;;;;;4.47;3.17;;;;;;;;;;4999685;28;20084;-61
2023/11/18 15:59:50;;;;;;;6.57;3.47;;;;;;;;;;5004283;28;20061;-61
2023/11/18 16:02:48;;;;;;;4.57;2.90;;;;;;;;;;5007204;28;20046;-62
2023/11/18 16:05:41;;;;;;;6.10;3.33;;;;;;;;;;5013369;28;20516;-60
2023/11/18 16:08:28;;;;;;;4.25;3.20;;;;;;;;;;5013723;28;20053;-59
2023/11/18 16:11:21;;;;;;;4.53;3.20;;;;;;;;;;5013251;28;20135;-58
2023/11/18 16:14:09;;;;;;;5.60;3.42;;;;;;;;;;5010986;28;20053;-59
2023/11/18 16:17:03;;;;;;;7.03;3.58;;;;;;;;;;5013464;28;20061;-59
2023/11/18 16:19:50;;;;;;;7.45;3.45;;;;;;;;;;5011417;28;20152;-59
2023/11/18 16:22:49;;;;;;;6.40;3.72;;;;;;;;;;5011414;28;20060;-58
2023/11/18 16:25:37;;;;;;;6.30;3.97;;;;;;;;;;5011395;28;20147;-59
2023/11/18 16:28:30;;;;;;;5.03;3.40;;;;;;;;;;5011398;28;20528;-59
2023/11/18 16:31:31;;;;;;;7.72;3.65;;;;;;;;;;4995085;28;20072;-59
2023/11/18 16:34:32;;;;;;;4.80;3.60;;;;;;;;;;4983601;28;20164;-52
2023/11/18 16:37:20;;;;;;;6.50;3.53;;;;;;;;;;4996693;28;20128;-63
2023/11/18 16:40:14;;;;;;;7.03;4.53;;;;;;;;;;4992773;28;20054;-63
2023/11/18 16:43:07;;;;;;;6.30;3.55;;;;;;;;;;4991062;28;20061;-62
2023/11/18 16:46:01;;;;;;;6.88;4.03;;;;;;;;;;4994112;28;20500;-63
2023/11/18 16:48:49;;;;;;;5.68;3.42;;;;;;;;;;4991747;28;20050;-63
2023/11/18 16:51:42;;;;;;;6.03;4.05;;;;;;;;;;4995295;28;20116;-63
2023/11/18 16:54:31;;;;;;;5.47;3.65;;;;;;;;;;4994827;28;20061;-63
2023/11/18 16:57:25;;;;;;;6.45;3.50;;;;;;;;;;4995595;28;20070;-63
2023/11/18 17:00:19;;;;;;;6.32;3.30;;;;;;;;;;4991389;28;20054;-63